createdAt,value
2018-01-21T00:02:37.531Z,9.40
2018-01-21T00:17:38.204Z,9.00
2018-01-21T00:32:37.075Z,10.03
2018-01-21T00:47:36.897Z,9.03
2018-01-21T01:02:37.295Z,9.80
2018-01-21T01:17:35.310Z,13.50
2018-01-21T01:32:35.186Z,11.60
2018-01-21T01:47:35.645Z,13.67
2018-01-21T02:02:34.582Z,12.40
2018-01-21T02:17:33.893Z,14.50
2018-01-21T02:32:35.333Z,12.80
2018-01-21T02:47:35.463Z,12.13
2018-01-21T03:02:36.141Z,13.32
2018-01-21T03:17:35.540Z,20.02
2018-01-21T03:32:37.694Z,26.17
2018-01-21T03:47:34.659Z,21.48
2018-01-21T04:02:38.875Z,17.52
2018-01-21T04:17:37.191Z,13.85
2018-01-21T04:32:36.450Z,14.38
2018-01-21T04:47:36.401Z,13.52
2018-01-21T05:02:35.572Z,12.57
2018-01-21T05:17:36.362Z,11.97
2018-01-21T05:32:36.055Z,8.43
2018-01-21T05:47:35.939Z,10.03
2018-01-21T06:02:35.369Z,10.50
2018-01-21T06:17:35.316Z,10.97
2018-01-21T06:32:35.341Z,10.80
2018-01-21T06:47:34.791Z,15.03
2018-01-21T07:02:34.601Z,16.20
2018-01-21T07:17:34.470Z,16.73
2018-01-21T07:32:34.513Z,16.10
2018-01-21T07:47:33.948Z,22.07
2018-01-21T08:02:34.835Z,16.20
2018-01-21T08:17:34.971Z,19.00
2018-01-21T08:32:34.753Z,22.03
2018-01-21T08:47:35.091Z,21.57
2018-01-21T09:02:35.448Z,20.20
2018-01-21T09:17:36.988Z,18.80
2018-01-21T09:32:34.919Z,17.17
2018-01-21T09:47:34.859Z,21.67
2018-01-21T10:02:35.262Z,24.97
2018-01-21T10:17:35.227Z,26.47
2018-01-21T10:32:35.179Z,26.43
2018-01-21T10:47:35.041Z,26.47
2018-01-21T11:02:36.510Z,24.60
2018-01-21T11:17:34.389Z,23.70
2018-01-21T11:32:33.959Z,25.03
2018-01-21T11:47:33.940Z,22.23
2018-01-21T12:02:34.677Z,30.57
2018-01-21T12:17:35.171Z,25.87
2018-01-21T12:32:34.659Z,26.87
2018-01-21T12:47:34.713Z,28.80
2018-01-21T13:02:34.955Z,28.53
2018-01-21T13:17:34.938Z,29.57
2018-01-21T13:32:34.809Z,25.67
2018-01-21T13:47:34.823Z,23.33
2018-01-21T14:02:35.253Z,18.13
2018-01-21T14:17:40.002Z,10.10
2018-01-21T14:32:36.539Z,8.20
2018-01-21T14:47:36.053Z,9.30
2018-01-21T15:02:35.055Z,8.53
2018-01-21T15:17:36.358Z,9.37
2018-01-21T15:32:45.271Z,9.10
2018-01-21T15:47:37.800Z,11.20
2018-01-21T16:02:39.421Z,11.50
2018-01-21T16:32:36.623Z,10.00
2018-01-21T16:47:36.992Z,9.17
2018-01-21T17:02:46.875Z,9.37
2018-01-21T17:17:36.940Z,10.50
2018-01-21T17:32:35.767Z,10.97
2018-01-21T18:02:36.458Z,11.30
2018-01-21T18:32:37.538Z,6.60
2018-01-21T18:47:37.367Z,9.27
2018-01-21T19:17:35.434Z,9.23
2018-01-21T19:32:35.400Z,8.37
2018-01-21T19:47:39.877Z,9.50
2018-01-21T20:02:37.008Z,9.53
2018-01-21T20:17:35.350Z,10.37
2018-01-21T20:32:34.736Z,9.50
2018-01-21T20:47:49.003Z,10.53
2018-01-21T21:02:37.662Z,20.27
2018-01-21T21:32:36.648Z,20.50
2018-01-21T21:47:51.184Z,16.87
2018-01-21T22:02:42.138Z,13.33
2018-01-21T22:17:37.675Z,28.60
2018-01-21T22:32:38.141Z,9.73
2018-01-21T22:47:37.144Z,3.77
2018-01-21T23:02:37.337Z,3.43
2018-01-21T23:17:37.869Z,2.90
2018-01-21T23:32:34.385Z,3.53
2018-01-21T23:47:34.421Z,3.90
